sensor_id;sensor_type;location;lat;lon;timestamp;pressure;altitude;pressure_sealevel;temperature;humidity
72116;BME280;59991;52.140;5.428;2024-02-26T00:00:29;99999.63;;;4.65;100.00
72116;BME280;59991;52.140;5.428;2024-02-26T00:01:01;99996.16;;;4.65;100.00
72116;BME280;59991;52.140;5.428;2024-02-26T00:01:33;99994.22;;;4.65;100.00
72116;BME280;59991;52.140;5.428;2024-02-26T00:02:05;100002.34;;;4.65;100.00
72116;BME280;59991;52.140;5.428;2024-02-26T00:02:56;99989.97;;;4.64;100.00
72116;BME280;59991;52.140;5.428;2024-02-26T00:03:27;99997.28;;;4.64;100.00
72116;BME280;59991;52.140;5.428;2024-02-26T00:03:59;100006.53;;;4.63;100.00
72116;BME280;59991;52.140;5.428;2024-02-26T00:04:48;100003.81;;;4.63;100.00
72116;BME280;59991;52.140;5.428;2024-02-26T00:05:19;100005.75;;;4.62;100.00
72116;BME280;59991;52.140;5.428;2024-02-26T00:05:51;100004.59;;;4.63;100.00
72116;BME280;59991;52.140;5.428;2024-02-26T00:06:41;100003.81;;;4.63;100.00
72116;BME280;59991;52.140;5.428;2024-02-26T00:07:12;100006.91;;;4.61;100.00
72116;BME280;59991;52.140;5.428;2024-02-26T00:07:44;100006.91;;;4.61;100.00
72116;BME280;59991;52.140;5.428;2024-02-26T00:08:16;100008.03;;;4.60;100.00
72116;BME280;59991;52.140;5.428;2024-02-26T00:08:48;100001.88;;;4.60;100.00
72116;BME280;59991;52.140;5.428;2024-02-26T00:09:19;100010.75;;;4.60;100.00
72116;BME280;59991;52.140;5.428;2024-02-26T00:09:51;100004.56;;;4.60;100.00
72116;BME280;59991;52.140;5.428;2024-02-26T00:10:22;100009.97;;;4.60;100.00
72116;BME280;59991;52.140;5.428;2024-02-26T00:10:54;100003.00;;;4.59;100.00
72116;BME280;59991;52.140;5.428;2024-02-26T00:11:25;99997.59;;;4.59;100.00
72116;BME280;59991;52.140;5.428;2024-02-26T00:11:57;100006.47;;;4.59;100.00
72116;BME280;59991;52.140;5.428;2024-02-26T00:12:29;100009.53;;;4.58;100.00
72116;BME280;59991;52.140;5.428;2024-02-26T00:13:01;100003.34;;;4.57;100.00
72116;BME280;59991;52.140;5.428;2024-02-26T00:13:32;100006.06;;;4.57;100.00
72116;BME280;59991;52.140;5.428;2024-02-26T00:14:04;100006.84;;;4.58;100.00
72116;BME280;59991;52.140;5.428;2024-02-26T00:14:35;100011.44;;;4.57;100.00
72116;BME280;59991;52.140;5.428;2024-02-26T00:15:08;100009.53;;;4.58;100.00
72116;BME280;59991;52.140;5.428;2024-02-26T00:15:40;100008.41;;;4.59;100.00
72116;BME280;59991;52.140;5.428;2024-02-26T00:16:12;100009.53;;;4.58;100.00
72116;BME280;59991;52.140;5.428;2024-02-26T00:16:43;100009.53;;;4.58;100.00
72116;BME280;59991;52.140;5.428;2024-02-26T00:17:16;100012.22;;;4.58;100.00
72116;BME280;59991;52.140;5.428;2024-02-26T00:17:48;100007.63;;;4.58;100.00
72116;BME280;59991;52.140;5.428;2024-02-26T00:18:19;100007.63;;;4.58;100.00
72116;BME280;59991;52.140;5.428;2024-02-26T00:18:51;100016.06;;;4.57;100.00
72116;BME280;59991;52.140;5.428;2024-02-26T00:19:22;100006.06;;;4.57;100.00
72116;BME280;59991;52.140;5.428;2024-02-26T00:19:54;100007.63;;;4.58;100.00
72116;BME280;59991;52.140;5.428;2024-02-26T00:20:25;100019.56;;;4.57;100.00
72116;BME280;59991;52.140;5.428;2024-02-26T00:20:57;100011.44;;;4.57;100.00
72116;BME280;59991;52.140;5.428;2024-02-26T00:21:29;100009.88;;;4.56;100.00
72116;BME280;59991;52.140;5.428;2024-02-26T00:22:00;100019.91;;;4.56;100.00
72116;BME280;59991;52.140;5.428;2024-02-26T00:22:32;100009.47;;;4.54;100.00
72116;BME280;59991;52.140;5.428;2024-02-26T00:23:03;100019.47;;;4.54;100.00
72116;BME280;59991;52.140;5.428;2024-02-26T00:23:35;100013.28;;;4.53;100.00
72116;BME280;59991;52.140;5.428;2024-02-26T00:24:06;100022.19;;;4.54;100.00
72116;BME280;59991;52.140;5.428;2024-02-26T00:24:40;100017.13;;;4.52;100.00
72116;BME280;59991;52.140;5.428;2024-02-26T00:25:11;100019.84;;;4.52;100.00
72116;BME280;59991;52.140;5.428;2024-02-26T00:25:44;100023.66;;;4.51;100.00
72116;BME280;59991;52.140;5.428;2024-02-26T00:26:15;100025.22;;;4.52;100.00
72116;BME280;59991;52.140;5.428;2024-02-26T00:26:47;100027.94;;;4.52;100.00
72116;BME280;59991;52.140;5.428;2024-02-26T00:27:24;100025.22;;;4.52;100.00
72116;BME280;59991;52.140;5.428;2024-02-26T00:27:55;100022.53;;;4.52;100.00
72116;BME280;59991;52.140;5.428;2024-02-26T00:28:27;100024.44;;;4.51;100.00
72116;BME280;59991;52.140;5.428;2024-02-26T00:29:00;100023.66;;;4.51;100.00
72116;BME280;59991;52.140;5.428;2024-02-26T00:29:31;100020.97;;;4.51;100.00
72116;BME280;59991;52.140;5.428;2024-02-26T00:30:04;100027.50;;;4.50;100.00
72116;BME280;59991;52.140;5.428;2024-02-26T00:30:35;100020.19;;;4.50;100.00
72116;BME280;59991;52.140;5.428;2024-02-26T00:31:07;100022.09;;;4.50;100.00
72116;BME280;59991;52.140;5.428;2024-02-26T00:31:38;100028.28;;;4.50;100.00
72116;BME280;59991;52.140;5.428;2024-02-26T00:32:10;100017.47;;;4.50;100.00
72116;BME280;59991;52.140;5.428;2024-02-26T00:32:41;100023.66;;;4.51;100.00
72116;BME280;59991;52.140;5.428;2024-02-26T00:33:16;100020.19;;;4.50;100.00
72116;BME280;59991;52.140;5.428;2024-02-26T00:33:48;100013.22;;;4.49;100.00
72116;BME280;59991;52.140;5.428;2024-02-26T00:34:20;100021.31;;;4.49;100.00
72116;BME280;59991;52.140;5.428;2024-02-26T00:34:51;100018.63;;;4.49;100.00
72116;BME280;59991;52.140;5.428;2024-02-26T00:36:13;100018.63;;;4.49;100.00
72116;BME280;59991;52.140;5.428;2024-02-26T00:36:45;100019.41;;;4.50;100.00
72116;BME280;59991;52.140;5.428;2024-02-26T00:37:16;100019.75;;;4.48;100.00
72116;BME280;59991;52.140;5.428;2024-02-26T00:37:48;100018.19;;;4.47;100.00
72116;BME280;59991;52.140;5.428;2024-02-26T00:38:19;100021.25;;;4.46;100.00
72116;BME280;59991;52.140;5.428;2024-02-26T00:38:51;100019.31;;;4.46;100.00
72116;BME280;59991;52.140;5.428;2024-02-26T00:39:40;100015.84;;;4.46;100.00
72116;BME280;59991;52.140;5.428;2024-02-26T00:40:12;100022.03;;;4.46;100.00
72116;BME280;59991;52.140;5.428;2024-02-26T00:40:43;100014.28;;;4.45;100.00
72116;BME280;59991;52.140;5.428;2024-02-26T00:41:15;100016.19;;;4.44;100.00
72116;BME280;59991;52.140;5.428;2024-02-26T00:41:46;100015.41;;;4.44;100.00
72116;BME280;59991;52.140;5.428;2024-02-26T00:42:36;100014.28;;;4.45;100.00
72116;BME280;59991;52.140;5.428;2024-02-26T00:43:07;100017.34;;;4.43;100.00
72116;BME280;59991;52.140;5.428;2024-02-26T00:43:39;100015.81;;;4.42;100.00
72116;BME280;59991;52.140;5.428;2024-02-26T00:44:11;100020.41;;;4.42;100.00
72116;BME280;59991;52.140;5.428;2024-02-26T00:44:42;100017.72;;;4.42;100.00
72116;BME280;59991;52.140;5.428;2024-02-26T00:45:14;100016.16;;;4.41;100.00
72116;BME280;59991;52.140;5.428;2024-02-26T00:45:47;100017.28;;;4.40;100.00
72116;BME280;59991;52.140;5.428;2024-02-26T00:46:19;100016.50;;;4.39;100.00
72116;BME280;59991;52.140;5.428;2024-02-26T00:46:50;100016.50;;;4.39;100.00
72116;BME280;59991;52.140;5.428;2024-02-26T00:47:22;100021.13;;;4.39;100.00
72116;BME280;59991;52.140;5.428;2024-02-26T00:47:53;100019.56;;;4.38;100.00
72116;BME280;59991;52.140;5.428;2024-02-26T00:48:25;100021.47;;;4.37;100.00
72116;BME280;59991;52.140;5.428;2024-02-26T00:48:57;100024.53;;;4.36;100.00
72116;BME280;59991;52.140;5.428;2024-02-26T00:49:29;100022.97;;;4.35;100.00
72116;BME280;59991;52.140;5.428;2024-02-26T00:50:00;100022.53;;;4.33;100.00
72116;BME280;59991;52.140;5.428;2024-02-26T00:51:22;100030.63;;;4.33;100.00
72116;BME280;59991;52.140;5.428;2024-02-26T00:51:56;100031.75;;;4.32;100.00
72116;BME280;59991;52.140;5.428;2024-02-26T00:52:28;100030.19;;;4.31;100.00
72116;BME280;59991;52.140;5.428;2024-02-26T00:53:00;100025.56;;;4.31;100.00
72116;BME280;59991;52.140;5.428;2024-02-26T00:53:31;100030.97;;;4.31;100.00
72116;BME280;59991;52.140;5.428;2024-02-26T00:54:03;100020.97;;;4.32;100.00
72116;BME280;59991;52.140;5.428;2024-02-26T00:54:35;100024.44;;;4.32;100.00
72116;BME280;59991;52.140;5.428;2024-02-26T00:55:07;100023.66;;;4.32;100.00
72116;BME280;59991;52.140;5.428;2024-02-26T00:56:30;100027.84;;;4.29;100.00
72116;BME280;59991;52.140;5.428;2024-02-26T00:57:01;100024.00;;;4.30;100.00
72116;BME280;59991;52.140;5.428;2024-02-26T00:57:33;100028.63;;;4.30;100.00
72116;BME280;59991;52.140;5.428;2024-02-26T00:58:04;100024.38;;;4.29;100.00
72116;BME280;59991;52.140;5.428;2024-02-26T00:58:36;100032.13;;;4.30;100.00
72116;BME280;59991;52.140;5.428;2024-02-26T00:59:25;100025.94;;;4.30;100.00
72116;BME280;59991;52.140;5.428;2024-02-26T00:59:56;100027.84;;;4.29;100.00
72116;BME280;59991;52.140;5.428;2024-02-26T01:00:28;100028.19;;;4.28;100.00
72116;BME280;59991;52.140;5.428;2024-02-26T01:01:00;100034.72;;;4.27;100.00
72116;BME280;59991;52.140;5.428;2024-02-26T01:01:50;100026.19;;;4.25;100.00
72116;BME280;59991;52.140;5.428;2024-02-26T01:02:21;100027.34;;;4.24;100.00
72116;BME280;59991;52.140;5.428;2024-02-26T01:02:53;100030.03;;;4.24;100.00
72116;BME280;59991;52.140;5.428;2024-02-26T01:03:43;100028.91;;;4.25;100.00
72116;BME280;59991;52.140;5.428;2024-02-26T01:05:06;100033.91;;;4.23;100.00
72116;BME280;59991;52.140;5.428;2024-02-26T01:05:37;100019.97;;;4.21;100.00
72116;BME280;59991;52.140;5.428;2024-02-26T01:06:09;100032.69;;;4.20;100.00
72116;BME280;59991;52.140;5.428;2024-02-26T01:06:41;100030.78;;;4.21;100.00
72116;BME280;59991;52.140;5.428;2024-02-26T01:07:12;100027.28;;;4.20;100.00
72116;BME280;59991;52.140;5.428;2024-02-26T01:07:44;100031.91;;;4.20;100.00
72116;BME280;59991;52.140;5.428;2024-02-26T01:08:16;100026.50;;;4.20;100.00
72116;BME280;59991;52.140;5.428;2024-02-26T01:08:48;100024.59;;;4.20;100.00
72116;BME280;59991;52.140;5.428;2024-02-26T01:09:19;100036.16;;;4.21;100.00
72116;BME280;59991;52.140;5.428;2024-02-26T01:09:51;100031.56;;;4.21;100.00
72116;BME280;59991;52.140;5.428;2024-02-26T01:10:22;100029.63;;;4.22;100.00
72116;BME280;59991;52.140;5.428;2024-02-26T01:10:53;100031.56;;;4.21;100.00
72116;BME280;59991;52.140;5.428;2024-02-26T01:11:25;100027.28;;;4.20;100.00
72116;BME280;59991;52.140;5.428;2024-02-26T01:11:57;100023.03;;;4.19;100.00
72116;BME280;59991;52.140;5.428;2024-02-26T01:12:29;100028.41;;;4.19;100.00
72116;BME280;59991;52.140;5.428;2024-02-26T01:13:01;100021.47;;;4.18;100.00
72116;BME280;59991;52.140;5.428;2024-02-26T01:13:33;100021.47;;;4.18;100.00
72116;BME280;59991;52.140;5.428;2024-02-26T01:14:23;100019.19;;;4.20;100.00
72116;BME280;59991;52.140;5.428;2024-02-26T01:14:55;100029.19;;;4.20;100.00
72116;BME280;59991;52.140;5.428;2024-02-26T01:15:27;100018.75;;;4.18;100.00
72116;BME280;59991;52.140;5.428;2024-02-26T01:15:58;100021.47;;;4.18;100.00
72116;BME280;59991;52.140;5.428;2024-02-26T01:16:30;100020.69;;;4.18;100.00
72116;BME280;59991;52.140;5.428;2024-02-26T01:17:20;100026.84;;;4.18;100.00
72116;BME280;59991;52.140;5.428;2024-02-26T01:18:09;100020.69;;;4.18;100.00
72116;BME280;59991;52.140;5.428;2024-02-26T01:18:41;100019.91;;;4.17;100.00
72116;BME280;59991;52.140;5.428;2024-02-26T01:19:13;100019.13;;;4.16;100.00
72116;BME280;59991;52.140;5.428;2024-02-26T01:19:44;100023.38;;;4.18;100.00
72116;BME280;59991;52.140;5.428;2024-02-26T01:20:16;100013.38;;;4.18;100.00
72116;BME280;59991;52.140;5.428;2024-02-26T01:20:47;100023.81;;;4.20;100.00
72116;BME280;59991;52.140;5.428;2024-02-26T01:21:19;100017.63;;;4.19;100.00
72116;BME280;59991;52.140;5.428;2024-02-26T01:21:50;100016.06;;;4.18;100.00
72116;BME280;59991;52.140;5.428;2024-02-26T01:22:22;100021.47;;;4.18;100.00
72116;BME280;59991;52.140;5.428;2024-02-26T01:22:53;100015.28;;;4.18;100.00
72116;BME280;59991;52.140;5.428;2024-02-26T01:23:25;100023.72;;;4.16;100.00
72116;BME280;59991;52.140;5.428;2024-02-26T01:23:56;100013.28;;;4.14;100.00
72116;BME280;59991;52.140;5.428;2024-02-26T01:24:30;100023.72;;;4.16;100.00
72116;BME280;59991;52.140;5.428;2024-02-26T01:25:01;100031.81;;;4.16;100.00
72116;BME280;59991;52.140;5.428;2024-02-26T01:25:33;100024.06;;;4.14;100.00
72116;BME280;59991;52.140;5.428;2024-02-26T01:26:05;100022.16;;;4.15;100.00
72116;BME280;59991;52.140;5.428;2024-02-26T01:26:36;100019.91;;;4.17;100.00
72116;BME280;59991;52.140;5.428;2024-02-26T01:27:08;100016.75;;;4.15;100.00
72116;BME280;59991;52.140;5.428;2024-02-26T01:27:40;100015.63;;;4.16;100.00
72116;BME280;59991;52.140;5.428;2024-02-26T01:28:14;100026.44;;;4.16;100.00
72116;BME280;59991;52.140;5.428;2024-02-26T01:28:45;100027.56;;;4.15;100.00
72116;BME280;59991;52.140;5.428;2024-02-26T01:29:17;100017.91;;;4.14;100.00
72116;BME280;59991;52.140;5.428;2024-02-26T01:29:48;100012.16;;;4.15;100.00
72116;BME280;59991;52.140;5.428;2024-02-26T01:31:10;100017.91;;;4.14;100.00
72116;BME280;59991;52.140;5.428;2024-02-26T01:31:41;100016.75;;;4.15;100.00
72116;BME280;59991;52.140;5.428;2024-02-26T01:32:13;100017.56;;;4.15;100.00
72116;BME280;59991;52.140;5.428;2024-02-26T01:32:44;100016.75;;;4.15;100.00
72116;BME280;59991;52.140;5.428;2024-02-26T01:33:16;100016.75;;;4.15;100.00
72116;BME280;59991;52.140;5.428;2024-02-26T01:33:48;100015.97;;;4.14;100.00
72116;BME280;59991;52.140;5.428;2024-02-26T01:34:19;100021.03;;;4.16;100.00
72116;BME280;59991;52.140;5.428;2024-02-26T01:34:51;100012.94;;;4.16;100.00
72116;BME280;59991;52.140;5.428;2024-02-26T01:35:23;100012.16;;;4.15;100.00
72116;BME280;59991;52.140;5.428;2024-02-26T01:35:54;100014.50;;;4.17;100.00
72116;BME280;59991;52.140;5.428;2024-02-26T01:36:26;100011.03;;;4.16;100.00
72116;BME280;59991;52.140;5.428;2024-02-26T01:36:57;100010.25;;;4.16;100.00
72116;BME280;59991;52.140;5.428;2024-02-26T01:37:29;100009.44;;;4.15;100.00
72116;BME280;59991;52.140;5.428;2024-02-26T01:38:03;100013.72;;;4.16;100.00
72116;BME280;59991;52.140;5.428;2024-02-26T01:38:35;100011.03;;;4.16;100.00
72116;BME280;59991;52.140;5.428;2024-02-26T01:39:25;100009.44;;;4.15;100.00
72116;BME280;59991;52.140;5.428;2024-02-26T01:39:56;100005.97;;;4.15;100.00
72116;BME280;59991;52.140;5.428;2024-02-26T01:40:28;100012.94;;;4.16;100.00
72116;BME280;59991;52.140;5.428;2024-02-26T01:40:59;100012.16;;;4.15;100.00
72116;BME280;59991;52.140;5.428;2024-02-26T01:41:31;100004.06;;;4.15;100.00
72116;BME280;59991;52.140;5.428;2024-02-26T01:42:02;100002.16;;;4.16;100.00
72116;BME280;59991;52.140;5.428;2024-02-26T01:42:34;100012.94;;;4.16;100.00
72116;BME280;59991;52.140;5.428;2024-02-26T01:43:06;100007.88;;;4.14;100.00
72116;BME280;59991;52.140;5.428;2024-02-26T01:43:37;100005.19;;;4.14;100.00
72116;BME280;59991;52.140;5.428;2024-02-26T01:44:12;100005.19;;;4.14;100.00
72116;BME280;59991;52.140;5.428;2024-02-26T01:44:44;100005.53;;;4.13;100.00
72116;BME280;59991;52.140;5.428;2024-02-26T01:45:16;100004.41;;;4.14;100.00
72116;BME280;59991;52.140;5.428;2024-02-26T01:45:54;100012.50;;;4.14;100.00
72116;BME280;59991;52.140;5.428;2024-02-26T01:46:26;100005.19;;;4.14;100.00
72116;BME280;59991;52.140;5.428;2024-02-26T01:47:16;100007.88;;;4.14;100.00
72116;BME280;59991;52.140;5.428;2024-02-26T01:47:49;100005.97;;;4.15;100.00
72116;BME280;59991;52.140;5.428;2024-02-26T01:49:12;100005.19;;;4.14;100.00
72116;BME280;59991;52.140;5.428;2024-02-26T01:50:34;100008.25;;;4.13;100.00
72116;BME280;59991;52.140;5.428;2024-02-26T01:51:06;100010.94;;;4.13;100.00
72116;BME280;59991;52.140;5.428;2024-02-26T01:51:39;100012.50;;;4.14;100.00
72116;BME280;59991;52.140;5.428;2024-02-26T01:52:11;100009.03;;;4.13;100.00
72116;BME280;59991;52.140;5.428;2024-02-26T01:53:01;100005.97;;;4.15;100.00
72116;BME280;59991;52.140;5.428;2024-02-26T01:53:32;100012.16;;;4.15;100.00
72116;BME280;59991;52.140;5.428;2024-02-26T01:54:04;100010.59;;;4.14;100.00
72116;BME280;59991;52.140;5.428;2024-02-26T01:54:37;100010.59;;;4.14;100.00
72116;BME280;59991;52.140;5.428;2024-02-26T01:55:10;100008.25;;;4.13;100.00
72116;BME280;59991;52.140;5.428;2024-02-26T01:55:41;100005.19;;;4.14;100.00
72116;BME280;59991;52.140;5.428;2024-02-26T01:56:14;100014.41;;;4.13;100.00
72116;BME280;59991;52.140;5.428;2024-02-26T01:56:46;100013.28;;;4.14;100.00
72116;BME280;59991;52.140;5.428;2024-02-26T01:57:18;100011.72;;;4.13;100.00
72116;BME280;59991;52.140;5.428;2024-02-26T01:57:51;100014.06;;;4.15;100.00
72116;BME280;59991;52.140;5.428;2024-02-26T01:58:24;100017.91;;;4.14;100.00
72116;BME280;59991;52.140;5.428;2024-02-26T01:58:56;100014.84;;;4.15;100.00
72116;BME280;59991;52.140;5.428;2024-02-26T01:59:28;100016.41;;;4.16;100.00
72116;BME280;59991;52.140;5.428;2024-02-26T02:00:00;100015.28;;;4.18;100.00
72116;BME280;59991;52.140;5.428;2024-02-26T02:00:31;100019.91;;;4.17;100.00
72116;BME280;59991;52.140;5.428;2024-02-26T02:01:03;100019.91;;;4.17;100.00
72116;BME280;59991;52.140;5.428;2024-02-26T02:01:36;100020.25;;;4.15;100.00
72116;BME280;59991;52.140;5.428;2024-02-26T02:02:10;100024.50;;;4.16;100.00
72116;BME280;59991;52.140;5.428;2024-02-26T02:02:42;100022.16;;;4.15;100.00
72116;BME280;59991;52.140;5.428;2024-02-26T02:03:16;100021.81;;;4.16;100.00
72116;BME280;59991;52.140;5.428;2024-02-26T02:03:47;100018.34;;;4.16;100.00
72116;BME280;59991;52.140;5.428;2024-02-26T02:04:19;100022.59;;;4.17;100.00
72116;BME280;59991;52.140;5.428;2024-02-26T02:04:51;100028.78;;;4.18;100.00
72116;BME280;59991;52.140;5.428;2024-02-26T02:05:23;100019.91;;;4.17;100.00
72116;BME280;59991;52.140;5.428;2024-02-26T02:05:56;100024.16;;;4.18;100.00
72116;BME280;59991;52.140;5.428;2024-02-26T02:06:27;100027.63;;;4.19;100.00
72116;BME280;59991;52.140;5.428;2024-02-26T02:07:00;100019.91;;;4.17;100.00
72116;BME280;59991;52.140;5.428;2024-02-26T02:07:31;100017.97;;;4.18;100.00
72116;BME280;59991;52.140;5.428;2024-02-26T02:08:03;100026.84;;;4.18;100.00
72116;BME280;59991;52.140;5.428;2024-02-26T02:08:37;100029.19;;;4.20;100.00
72116;BME280;59991;52.140;5.428;2024-02-26T02:09:10;100030.78;;;4.21;100.00
72116;BME280;59991;52.140;5.428;2024-02-26T02:09:42;100028.06;;;4.21;100.00
72116;BME280;59991;52.140;5.428;2024-02-26T02:10:15;100031.56;;;4.21;100.00
72116;BME280;59991;52.140;5.428;2024-02-26T02:11:04;100025.03;;;4.22;100.00
72116;BME280;59991;52.140;5.428;2024-02-26T02:11:37;100033.91;;;4.23;100.00
72116;BME280;59991;52.140;5.428;2024-02-26T02:12:09;100031.56;;;4.21;100.00
72116;BME280;59991;52.140;5.428;2024-02-26T02:12:41;100032.34;;;4.22;100.00
72116;BME280;59991;52.140;5.428;2024-02-26T02:13:12;100033.91;;;4.23;100.00
72116;BME280;59991;52.140;5.428;2024-02-26T02:13:44;100032.34;;;4.22;100.00
72116;BME280;59991;52.140;5.428;2024-02-26T02:14:15;100027.72;;;4.22;100.00
72116;BME280;59991;52.140;5.428;2024-02-26T02:14:47;100023.09;;;4.23;100.00
72116;BME280;59991;52.140;5.428;2024-02-26T02:15:19;100031.97;;;4.23;100.00
72116;BME280;59991;52.140;5.428;2024-02-26T02:15:52;100027.34;;;4.24;100.00
72116;BME280;59991;52.140;5.428;2024-02-26T02:16:24;100032.72;;;4.24;100.00
72116;BME280;59991;52.140;5.428;2024-02-26T02:16:55;100030.81;;;4.24;100.00
72116;BME280;59991;52.140;5.428;2024-02-26T02:17:28;100027.78;;;4.26;100.00
72116;BME280;59991;52.140;5.428;2024-02-26T02:17:59;100024.28;;;4.25;100.00
72116;BME280;59991;52.140;5.428;2024-02-26T02:18:48;100035.88;;;4.26;100.00
72116;BME280;59991;52.140;5.428;2024-02-26T02:19:20;100030.47;;;4.26;100.00
72116;BME280;59991;52.140;5.428;2024-02-26T02:19:51;100026.63;;;4.27;100.00
72116;BME280;59991;52.140;5.428;2024-02-26T02:20:33;100030.13;;;4.27;100.00
72116;BME280;59991;52.140;5.428;2024-02-26T02:21:05;100037.44;;;4.27;100.00
72116;BME280;59991;52.140;5.428;2024-02-26T02:21:36;100036.28;;;4.28;100.00
72116;BME280;59991;52.140;5.428;2024-02-26T02:22:08;100034.72;;;4.27;100.00
72116;BME280;59991;52.140;5.428;2024-02-26T02:22:39;100037.44;;;4.27;100.00
72116;BME280;59991;52.140;5.428;2024-02-26T02:23:11;100032.03;;;4.27;100.00
72116;BME280;59991;52.140;5.428;2024-02-26T02:23:42;100034.72;;;4.27;100.00
72116;BME280;59991;52.140;5.428;2024-02-26T02:24:18;100036.28;;;4.28;100.00
72116;BME280;59991;52.140;5.428;2024-02-26T02:24:52;100037.44;;;4.27;100.00
72116;BME280;59991;52.140;5.428;2024-02-26T02:25:23;100040.91;;;4.27;100.00
72116;BME280;59991;52.140;5.428;2024-02-26T02:25:56;100040.13;;;4.27;100.00
72116;BME280;59991;52.140;5.428;2024-02-26T02:26:28;100034.72;;;4.27;100.00
72116;BME280;59991;52.140;5.428;2024-02-26T02:27:00;100038.22;;;4.27;100.00
72116;BME280;59991;52.140;5.428;2024-02-26T02:27:31;100036.28;;;4.28;100.00
72116;BME280;59991;52.140;5.428;2024-02-26T02:28:04;100044.03;;;4.29;100.00
72116;BME280;59991;52.140;5.428;2024-02-26T02:28:35;100036.28;;;4.28;100.00
72116;BME280;59991;52.140;5.428;2024-02-26T02:29:07;100039.78;;;4.28;100.00
72116;BME280;59991;52.140;5.428;2024-02-26T02:29:41;100039.78;;;4.28;100.00
72116;BME280;59991;52.140;5.428;2024-02-26T02:30:13;100037.88;;;4.29;100.00
72116;BME280;59991;52.140;5.428;2024-02-26T02:30:45;100045.59;;;4.30;100.00
72116;BME280;59991;52.140;5.428;2024-02-26T02:31:16;100040.56;;;4.29;100.00
72116;BME280;59991;52.140;5.428;2024-02-26T02:31:48;100045.59;;;4.30;100.00
72116;BME280;59991;52.140;5.428;2024-02-26T02:32:20;100044.47;;;4.31;100.00
72116;BME280;59991;52.140;5.428;2024-02-26T02:32:53;100046.03;;;4.32;100.00
72116;BME280;59991;52.140;5.428;2024-02-26T02:33:26;100043.34;;;4.32;100.00
72116;BME280;59991;52.140;5.428;2024-02-26T02:33:58;100039.06;;;4.31;100.00
72116;BME280;59991;52.140;5.428;2024-02-26T02:34:30;100039.06;;;4.31;100.00
72116;BME280;59991;52.140;5.428;2024-02-26T02:35:21;100041.00;;;4.31;100.00
72116;BME280;59991;52.140;5.428;2024-02-26T02:36:11;100045.25;;;4.32;100.00
72116;BME280;59991;52.140;5.428;2024-02-26T02:36:52;100046.38;;;4.31;100.00
72116;BME280;59991;52.140;5.428;2024-02-26T02:37:24;100049.88;;;4.31;100.00
72116;BME280;59991;52.140;5.428;2024-02-26T02:37:57;100047.94;;;4.32;100.00
72116;BME280;59991;52.140;5.428;2024-02-26T02:38:28;100041.00;;;4.31;100.00
72116;BME280;59991;52.140;5.428;2024-02-26T02:40:10;100046.81;;;4.33;100.00
72116;BME280;59991;52.140;5.428;2024-02-26T02:40:42;100048.38;;;4.34;100.00
72116;BME280;59991;52.140;5.428;2024-02-26T02:41:13;100052.66;;;4.35;100.00
72116;BME280;59991;52.140;5.428;2024-02-26T02:41:45;100049.53;;;4.33;100.00
72116;BME280;59991;52.140;5.428;2024-02-26T02:42:16;100047.25;;;4.35;100.00
72116;BME280;59991;52.140;5.428;2024-02-26T02:43:38;100058.03;;;4.35;100.00
72116;BME280;59991;52.140;5.428;2024-02-26T02:44:09;100052.22;;;4.33;100.00
72116;BME280;59991;52.140;5.428;2024-02-26T02:44:41;100053.78;;;4.34;100.00
72116;BME280;59991;52.140;5.428;2024-02-26T02:45:12;100056.13;;;4.35;100.00
72116;BME280;59991;52.140;5.428;2024-02-26T02:46:02;100060.75;;;4.35;100.00
72116;BME280;59991;52.140;5.428;2024-02-26T02:46:34;100056.13;;;4.35;100.00
72116;BME280;59991;52.140;5.428;2024-02-26T02:47:06;100064.22;;;4.35;100.00
72116;BME280;59991;52.140;5.428;2024-02-26T02:47:38;100062.66;;;4.34;100.00
72116;BME280;59991;52.140;5.428;2024-02-26T02:48:11;100066.94;;;4.35;100.00
72116;BME280;59991;52.140;5.428;2024-02-26T02:48:42;100061.88;;;4.34;100.00
72116;BME280;59991;52.140;5.428;2024-02-26T02:50:05;100062.66;;;4.34;100.00
72116;BME280;59991;52.140;5.428;2024-02-26T02:50:37;100070.75;;;4.34;100.00
72116;BME280;59991;52.140;5.428;2024-02-26T02:51:09;100067.28;;;4.34;100.00
72116;BME280;59991;52.140;5.428;2024-02-26T02:51:40;100064.59;;;4.34;100.00
72116;BME280;59991;52.140;5.428;2024-02-26T02:52:12;100065.38;;;4.34;100.00
72116;BME280;59991;52.140;5.428;2024-02-26T02:52:43;100063.44;;;4.35;100.00
72116;BME280;59991;52.140;5.428;2024-02-26T02:53:15;100067.28;;;4.34;100.00
72116;BME280;59991;52.140;5.428;2024-02-26T02:54:06;100068.84;;;4.35;100.00
72116;BME280;59991;52.140;5.428;2024-02-26T02:54:55;100063.44;;;4.35;100.00
72116;BME280;59991;52.140;5.428;2024-02-26T02:55:26;100069.63;;;4.35;100.00
72116;BME280;59991;52.140;5.428;2024-02-26T02:55:58;100059.97;;;4.34;100.00
72116;BME280;59991;52.140;5.428;2024-02-26T02:56:29;100063.44;;;4.35;100.00
72116;BME280;59991;52.140;5.428;2024-02-26T02:57:03;100069.63;;;4.35;100.00
72116;BME280;59991;52.140;5.428;2024-02-26T02:57:34;100067.72;;;4.36;100.00
72116;BME280;59991;52.140;5.428;2024-02-26T02:58:07;100070.41;;;4.36;100.00
72116;BME280;59991;52.140;5.428;2024-02-26T02:58:39;100074.66;;;4.37;100.00
72116;BME280;59991;52.140;5.428;2024-02-26T02:59:10;100070.84;;;4.38;100.00
72116;BME280;59991;52.140;5.428;2024-02-26T02:59:43;100079.72;;;4.38;100.00
72116;BME280;59991;52.140;5.428;2024-02-26T03:00:15;100077.81;;;4.39;100.00
72116;BME280;59991;52.140;5.428;2024-02-26T03:00:46;100077.81;;;4.39;100.00
72116;BME280;59991;52.140;5.428;2024-02-26T03:01:18;100079.38;;;4.40;100.00
72116;BME280;59991;52.140;5.428;2024-02-26T03:01:50;100073.19;;;4.39;100.00
72116;BME280;59991;52.140;5.428;2024-02-26T03:02:21;100075.53;;;4.41;100.00